createdAt,value
2023-04-03T00:00:10.713Z,103389.97
2023-04-03T00:02:12.215Z,103392.50
2023-04-03T00:04:13.722Z,103395.94
2023-04-03T00:06:15.302Z,103399.34
2023-04-03T00:08:16.826Z,103393.84
2023-04-03T00:10:18.363Z,103394.69
2023-04-03T00:12:19.970Z,103394.38
2023-04-03T00:14:21.550Z,103387.41
2023-04-03T00:16:23.125Z,103389.84
2023-04-03T00:18:24.856Z,103384.41
2023-04-03T00:20:27.175Z,103387.69
2023-04-03T00:22:29.692Z,103386.66
2023-04-03T00:24:31.169Z,103393.44
2023-04-03T00:26:32.699Z,103382.75
2023-04-03T00:28:34.197Z,103387.81
2023-04-03T00:30:36.247Z,103386.84
2023-04-03T00:32:37.921Z,103382.25
2023-04-03T00:34:39.388Z,103391.63
2023-04-03T00:36:40.986Z,103392.34
2023-04-03T00:38:42.679Z,103392.22
2023-04-03T00:40:47.421Z,103402.53
2023-04-03T00:42:52.612Z,103398.91
2023-04-03T00:44:54.049Z,103401.44
2023-04-03T00:46:55.505Z,103408.19
2023-04-03T00:48:57.236Z,103398.50
2023-04-03T00:51:00.367Z,103404.31
2023-04-03T00:53:02.850Z,103410.25
2023-04-03T00:55:08.645Z,103401.38
2023-04-03T00:57:11.865Z,103400.41
2023-04-03T00:59:24.129Z,103406.41
2023-04-03T01:01:28.302Z,103406.34
2023-04-03T01:03:29.835Z,103407.06
2023-04-03T01:05:31.335Z,103400.91
2023-04-03T01:07:34.992Z,103404.25
2023-04-03T01:09:37.876Z,103400.66
2023-04-03T01:11:39.348Z,103409.13
2023-04-03T01:13:41.749Z,103410.84
2023-04-03T01:15:43.214Z,103408.09
2023-04-03T01:17:51.990Z,103405.31
2023-04-03T01:20:04.087Z,103415.41
2023-04-03T01:22:36.216Z,103411.53
2023-04-03T01:24:40.075Z,103418.22
2023-04-03T01:26:42.693Z,103417.09
2023-04-03T01:28:44.202Z,103422.22
2023-04-03T01:30:51.886Z,103423.03
2023-04-03T01:32:53.390Z,103425.47
2023-04-03T01:34:54.973Z,103417.50
2023-04-03T01:36:56.612Z,103426.13
2023-04-03T01:39:00.323Z,103428.81
2023-04-03T01:41:02.166Z,103426.94
2023-04-03T01:43:03.662Z,103431.16
2023-04-03T01:45:05.541Z,103427.66
2023-04-03T01:47:08.334Z,103436.34
2023-04-03T01:49:10.684Z,103436.34
2023-04-03T01:51:12.395Z,103435.47
2023-04-03T01:53:14.349Z,103435.31
2023-04-03T01:55:16.099Z,103430.84
2023-04-03T01:57:17.680Z,103434.97
2023-04-03T01:59:20.222Z,103433.19
2023-04-03T02:01:22.224Z,103434.97
2023-04-03T02:03:23.830Z,103431.56
2023-04-03T02:05:25.442Z,103437.66
2023-04-03T02:07:26.896Z,103439.44
2023-04-03T02:09:28.470Z,103445.44
2023-04-03T02:11:29.992Z,103441.97
2023-04-03T02:13:31.524Z,103446.25
2023-04-03T02:15:33.041Z,103448.88
2023-04-03T02:17:36.045Z,103453.16
2023-04-03T02:19:37.682Z,103447.72
2023-04-03T02:21:39.175Z,103442.38
2023-04-03T02:23:40.845Z,103443.16
2023-04-03T02:25:42.361Z,103445.78
2023-04-03T02:27:43.991Z,103442.72
2023-04-03T02:29:45.490Z,103447.66
2023-04-03T02:31:47.043Z,103447.50
2023-04-03T02:33:48.569Z,103450.91
2023-04-03T02:35:54.465Z,103446.53
2023-04-03T02:37:56.692Z,103448.88
2023-04-03T02:39:58.206Z,103457.47
2023-04-03T02:41:59.676Z,103454.97
2023-04-03T02:44:05.640Z,103454.88
2023-04-03T02:46:07.957Z,103457.38
2023-04-03T02:48:09.728Z,103452.03
2023-04-03T02:50:11.233Z,103450.97
2023-04-03T02:52:14.308Z,103449.09
2023-04-03T02:54:15.878Z,103449.97
2023-04-03T02:56:19.138Z,103449.09
2023-04-03T02:58:20.618Z,103456.78
2023-04-03T03:00:22.170Z,103457.50
2023-04-03T03:02:23.719Z,103460.91
2023-04-03T03:04:25.381Z,103454.75
2023-04-03T03:06:27.244Z,103459.03
2023-04-03T03:08:28.714Z,103457.97
2023-04-03T03:10:30.404Z,103458.78
2023-04-03T03:12:32.691Z,103467.38
2023-04-03T03:14:35.545Z,103457.72
2023-04-03T03:16:37.051Z,103449.81
2023-04-03T03:18:38.548Z,103455.81
2023-04-03T03:20:40.017Z,103454.84
2023-04-03T03:22:41.981Z,103460.84
2023-04-03T03:24:43.510Z,103458.16
2023-04-03T03:26:45.455Z,103453.75
2023-04-03T03:28:47.412Z,103453.69
2023-04-03T03:30:48.921Z,103457.88
2023-04-03T03:32:50.549Z,103457.00
2023-04-03T03:34:52.099Z,103461.28
2023-04-03T03:36:53.596Z,103464.69
2023-04-03T03:38:55.345Z,103455.03
2023-04-03T03:40:57.031Z,103467.19
2023-04-03T03:42:58.513Z,103461.94
2023-04-03T03:45:00.001Z,103467.94
2023-04-03T03:47:01.761Z,103465.25
2023-04-03T03:49:03.238Z,103463.38
2023-04-03T03:51:04.789Z,103458.00
2023-04-03T03:53:06.288Z,103463.09
2023-04-03T03:55:08.304Z,103456.13
2023-04-03T03:57:09.839Z,103455.22
2023-04-03T03:59:13.560Z,103456.84
2023-04-03T04:01:15.091Z,103462.84
2023-04-03T04:03:17.158Z,103460.06
2023-04-03T04:05:18.975Z,103461.69
2023-04-03T04:07:20.500Z,103465.88
2023-04-03T04:09:22.621Z,103464.00
2023-04-03T04:11:24.140Z,103468.31
2023-04-03T04:13:25.743Z,103466.41
2023-04-03T04:15:27.946Z,103467.19
2023-04-03T04:17:29.586Z,103470.69
2023-04-03T04:19:31.249Z,103470.59
2023-04-03T04:21:32.831Z,103476.69
2023-04-03T04:23:34.313Z,103478.47
2023-04-03T04:25:36.152Z,103481.88
2023-04-03T04:27:38.126Z,103480.16
2023-04-03T04:29:39.629Z,103479.19
2023-04-03T04:31:41.217Z,103482.50
2023-04-03T04:33:42.692Z,103485.97
2023-04-03T04:35:44.752Z,103483.38
2023-04-03T04:37:46.563Z,103493.69
2023-04-03T04:39:48.021Z,103485.81
2023-04-03T04:41:49.533Z,103492.69
2023-04-03T04:43:51.658Z,103495.19
2023-04-03T04:46:07.778Z,103496.00
2023-04-03T04:48:09.505Z,103498.50
2023-04-03T04:50:12.402Z,103501.91
2023-04-03T04:52:14.565Z,103506.28
2023-04-03T04:54:16.232Z,103501.00
2023-04-03T04:56:17.821Z,103507.00
2023-04-03T04:58:19.967Z,103506.09
2023-04-03T05:00:21.729Z,103506.19
2023-04-03T05:02:23.234Z,103515.69
2023-04-03T05:04:24.791Z,103505.31
2023-04-03T05:06:26.415Z,103514.88
2023-04-03T05:08:27.942Z,103512.28
2023-04-03T05:10:29.731Z,103517.47
2023-04-03T05:12:31.347Z,103521.06
2023-04-03T05:14:32.896Z,103526.34
2023-04-03T05:16:34.986Z,103526.53
2023-04-03T05:18:37.048Z,103520.72
2023-04-03T05:20:38.580Z,103518.19
2023-04-03T05:22:40.263Z,103516.72
2023-04-03T05:24:41.815Z,103517.69
2023-04-03T05:26:44.455Z,103519.59
2023-04-03T05:28:45.909Z,103514.56
2023-04-03T05:30:54.288Z,103519.13
2023-04-03T05:32:59.262Z,103514.13
2023-04-03T05:35:01.371Z,103513.50
2023-04-03T05:37:04.208Z,103513.75
2023-04-03T05:39:05.919Z,103521.91
2023-04-03T05:41:07.590Z,103522.16
2023-04-03T05:43:09.083Z,103515.53
2023-04-03T05:45:11.327Z,103527.13
2023-04-03T05:47:12.820Z,103530.06
2023-04-03T05:49:14.302Z,103529.44
2023-04-03T05:51:22.727Z,103527.00
2023-04-03T05:53:29.283Z,103536.13
2023-04-03T05:55:30.775Z,103533.00
2023-04-03T05:57:32.326Z,103534.13
2023-04-03T05:59:33.847Z,103538.69
2023-04-03T06:01:35.505Z,103545.16
2023-04-03T06:03:38.769Z,103546.31
2023-04-03T06:05:42.631Z,103546.50
2023-04-03T06:07:45.592Z,103545.84
2023-04-03T06:09:47.243Z,103550.41
2023-04-03T06:11:48.807Z,103553.09
2023-04-03T06:13:50.318Z,103549.84
2023-04-03T06:15:51.859Z,103557.00
2023-04-03T06:17:53.376Z,103553.69
2023-04-03T06:19:54.895Z,103556.63
2023-04-03T06:21:56.366Z,103561.19
2023-04-03T06:23:57.859Z,103558.88
2023-04-03T06:25:59.339Z,103566.09
2023-04-03T06:28:01.056Z,103562.13
2023-04-03T06:30:02.715Z,103554.56
2023-04-03T06:32:04.250Z,103557.50
2023-04-03T06:34:09.449Z,103549.78
2023-04-03T06:36:12.809Z,103556.84
2023-04-03T06:38:14.290Z,103556.22
2023-04-03T06:40:27.354Z,103562.38
2023-04-03T06:42:29.045Z,103566.31
2023-04-03T06:44:30.839Z,103560.63
2023-04-03T06:46:32.363Z,103561.53
2023-04-03T06:48:33.861Z,103565.19
2023-04-03T06:50:35.596Z,103564.59
2023-04-03T06:52:37.152Z,103577.13
2023-04-03T06:54:39.174Z,103575.56
2023-04-03T06:56:40.693Z,103576.88
2023-04-03T06:58:42.633Z,103587.59
2023-04-03T07:00:44.211Z,103587.94
2023-04-03T07:02:46.439Z,103585.75
2023-04-03T07:04:48.218Z,103592.00
2023-04-03T07:06:49.769Z,103583.53
2023-04-03T07:08:51.408Z,103587.69
2023-04-03T07:10:52.935Z,103591.19
2023-04-03T07:12:54.402Z,103593.94
2023-04-03T07:14:55.868Z,103592.63
2023-04-03T07:16:57.390Z,103601.41
2023-04-03T07:18:58.903Z,103602.31
2023-04-03T07:21:01.297Z,103599.03
2023-04-03T07:23:04.314Z,103598.28
2023-04-03T07:25:08.167Z,103604.81
2023-04-03T07:27:10.155Z,103605.34
2023-04-03T07:29:11.858Z,103613.41
2023-04-03T07:31:14.659Z,103615.50
2023-04-03T07:33:17.678Z,103614.91
2023-04-03T07:35:19.939Z,103614.31
2023-04-03T07:37:21.590Z,103623.00
2023-04-03T07:39:23.070Z,103615.41
2023-04-03T07:41:24.568Z,103613.22
2023-04-03T07:43:26.115Z,103614.94
2023-04-03T07:45:27.813Z,103612.25
2023-04-03T07:47:29.471Z,103616.72
2023-04-03T07:49:31.150Z,103614.31
2023-04-03T07:51:32.702Z,103617.00
2023-04-03T07:53:34.443Z,103612.22
2023-04-03T07:55:41.506Z,103618.84
2023-04-03T07:57:43.504Z,103620.84
2023-04-03T07:59:45.032Z,103625.47
2023-04-03T08:01:46.757Z,103621.53
2023-04-03T08:03:48.493Z,103620.72
2023-04-03T08:05:51.321Z,103620.72
2023-04-03T08:07:53.090Z,103622.63
2023-04-03T08:09:54.598Z,103620.63
2023-04-03T08:11:56.226Z,103621.81
2023-04-03T08:13:58.173Z,103620.25
2023-04-03T08:16:09.179Z,103618.66
2023-04-03T08:18:11.342Z,103619.50
2023-04-03T08:20:12.969Z,103615.44
2023-04-03T08:22:14.511Z,103622.81
2023-04-03T08:24:16.316Z,103612.88
2023-04-03T08:26:22.234Z,103614.78
2023-04-03T08:28:23.726Z,103610.59
2023-04-03T08:30:29.379Z,103611.84
2023-04-03T08:32:31.023Z,103611.34
2023-04-03T08:34:35.767Z,103604.53
2023-04-03T08:36:37.267Z,103608.25
2023-04-03T08:38:38.789Z,103605.06
2023-04-03T08:40:41.682Z,103611.41
2023-04-03T08:42:55.131Z,103605.50
2023-04-03T08:45:09.334Z,103609.44
2023-04-03T08:47:30.551Z,103604.75
2023-04-03T08:49:32.107Z,103606.91
2023-04-03T08:51:33.808Z,103605.41
2023-04-03T08:53:38.822Z,103608.91
2023-04-03T08:55:51.852Z,103593.28
2023-04-03T08:58:08.038Z,103599.66
2023-04-03T09:00:21.974Z,103598.25
2023-04-03T09:02:34.669Z,103595.94
2023-04-03T09:04:37.598Z,103592.47
2023-04-03T09:06:40.323Z,103592.53
2023-04-03T09:08:49.168Z,103590.81
2023-04-03T09:10:53.501Z,103593.38
2023-04-03T09:13:06.307Z,103587.50
2023-04-03T09:15:31.242Z,103585.19
2023-04-03T09:17:56.122Z,103585.03
2023-04-03T09:20:18.151Z,103590.81
2023-04-03T09:22:32.773Z,103585.34
2023-04-03T09:24:36.767Z,103583.13
2023-04-03T09:26:55.781Z,103576.00
2023-04-03T09:29:03.315Z,103588.91
2023-04-03T09:31:17.736Z,103579.84
2023-04-03T09:33:19.778Z,103575.81
2023-04-03T09:35:44.950Z,103575.50
2023-04-03T09:37:52.516Z,103575.13
2023-04-03T09:39:56.100Z,103579.72
2023-04-03T09:42:20.671Z,103579.94
2023-04-03T09:44:27.976Z,103574.19
2023-04-03T09:46:33.977Z,103570.13
2023-04-03T09:48:35.627Z,103568.53
2023-04-03T09:50:38.318Z,103563.81
2023-04-03T09:52:44.933Z,103568.31
2023-04-03T09:54:46.430Z,103559.94
2023-04-03T09:56:52.575Z,103562.88
2023-04-03T09:59:00.123Z,103568.06
2023-04-03T10:01:03.989Z,103557.75
2023-04-03T10:03:11.506Z,103559.41
2023-04-03T10:05:40.027Z,103555.31
2023-04-03T10:07:46.414Z,103559.13
2023-04-03T10:09:58.546Z,103562.44
2023-04-03T10:12:06.236Z,103557.09
2023-04-03T10:14:18.240Z,103557.00
2023-04-03T10:16:25.854Z,103557.06
2023-04-03T10:18:50.653Z,103547.50
2023-04-03T10:20:53.355Z,103546.47
2023-04-03T10:23:21.799Z,103553.06
2023-04-03T10:25:33.783Z,103550.84
2023-04-03T10:28:06.645Z,103548.66
2023-04-03T10:30:26.494Z,103541.41
2023-04-03T10:32:53.488Z,103541.88
2023-04-03T10:35:08.973Z,103543.19
2023-04-03T10:37:29.689Z,103538.19
2023-04-03T10:39:50.377Z,103530.84
2023-04-03T10:42:12.854Z,103527.94
2023-04-03T10:44:38.443Z,103528.19
2023-04-03T10:46:53.357Z,103524.84
2023-04-03T10:49:11.745Z,103529.44
2023-04-03T10:51:19.377Z,103526.69
2023-04-03T10:53:48.420Z,103525.41
2023-04-03T10:56:14.001Z,103519.56
2023-04-03T10:58:27.791Z,103506.78
2023-04-03T11:00:46.636Z,103514.22
2023-04-03T11:02:56.373Z,103506.97
2023-04-03T11:05:12.106Z,103507.22
2023-04-03T11:07:24.369Z,103507.00
2023-04-03T11:09:38.158Z,103510.09
2023-04-03T11:11:42.444Z,103504.47
2023-04-03T11:14:06.568Z,103496.47
2023-04-03T11:16:08.798Z,103494.47
2023-04-03T11:18:22.689Z,103496.03
2023-04-03T11:20:34.320Z,103480.00
2023-04-03T11:22:44.111Z,103488.97
2023-04-03T11:24:57.722Z,103487.59
2023-04-03T11:27:05.396Z,103484.00
2023-04-03T11:29:18.020Z,103487.84
2023-04-03T11:31:57.570Z,103480.91
2023-04-03T11:34:17.852Z,103473.22
2023-04-03T11:36:27.202Z,103469.00
2023-04-03T11:38:44.487Z,103477.13
2023-04-03T11:40:46.911Z,103471.91
2023-04-03T11:42:56.030Z,103466.69
2023-04-03T11:45:28.272Z,103464.16
2023-04-03T11:47:49.898Z,103465.84
2023-04-03T11:49:52.311Z,103467.47
2023-04-03T11:51:53.888Z,103457.84
2023-04-03T11:53:55.774Z,103451.78
2023-04-03T11:55:57.511Z,103456.19
2023-04-03T11:58:02.034Z,103440.25
2023-04-03T12:00:42.033Z,103441.03
2023-04-03T12:02:53.740Z,103449.06
2023-04-03T12:05:30.510Z,103441.97
2023-04-03T12:07:32.441Z,103434.75
2023-04-03T12:09:59.481Z,103431.09
2023-04-03T12:12:21.727Z,103435.25
2023-04-03T12:14:26.443Z,103434.69
2023-04-03T12:16:35.336Z,103425.38
2023-04-03T12:18:43.493Z,103429.69
2023-04-03T12:20:56.487Z,103428.47
2023-04-03T12:23:43.218Z,103426.63
2023-04-03T12:25:52.847Z,103425.31
2023-04-03T12:27:54.790Z,103410.88
2023-04-03T12:30:06.715Z,103411.97
2023-04-03T12:32:33.361Z,103418.25
2023-04-03T12:34:53.665Z,103416.53
2023-04-03T12:37:04.642Z,103417.00
2023-04-03T12:39:18.175Z,103411.00
2023-04-03T12:41:43.203Z,103409.25
2023-04-03T12:44:03.375Z,103403.88
2023-04-03T12:46:07.930Z,103411.66
2023-04-03T12:48:16.164Z,103398.16
2023-04-03T12:50:38.135Z,103390.78
2023-04-03T12:52:46.460Z,103379.47
2023-04-03T12:54:48.973Z,103382.91
2023-04-03T12:56:51.575Z,103386.53
2023-04-03T12:59:13.319Z,103384.09
2023-04-03T13:01:19.344Z,103381.56
2023-04-03T13:03:27.879Z,103374.56
2023-04-03T13:05:29.473Z,103379.94
2023-04-03T13:07:34.591Z,103382.59
2023-04-03T13:09:36.698Z,103379.91
2023-04-03T13:11:42.933Z,103376.25
2023-04-03T13:14:06.235Z,103375.13
2023-04-03T13:16:12.833Z,103374.03
2023-04-03T13:18:34.867Z,103370.38
2023-04-03T13:20:38.401Z,103361.41
2023-04-03T13:22:56.922Z,103368.63
2023-04-03T13:25:04.099Z,103368.06
2023-04-03T13:27:06.992Z,103364.78
2023-04-03T13:29:29.909Z,103369.38
2023-04-03T13:31:38.501Z,103366.81
2023-04-03T13:33:59.941Z,103366.84
2023-04-03T13:36:07.944Z,103365.03
2023-04-03T13:38:18.539Z,103367.63
2023-04-03T13:40:20.255Z,103360.47
2023-04-03T13:42:28.439Z,103356.00
2023-04-03T13:44:36.307Z,103358.59
2023-04-03T13:46:37.854Z,103347.19
2023-04-03T13:48:39.319Z,103346.34
2023-04-03T13:51:01.664Z,103345.50
2023-04-03T13:53:14.566Z,103338.41
2023-04-03T13:55:35.661Z,103340.16
2023-04-03T13:57:37.261Z,103344.53
2023-04-03T13:59:38.828Z,103337.34
2023-04-03T14:02:04.612Z,103341.69
2023-04-03T14:04:34.379Z,103339.94
2023-04-03T14:06:36.931Z,103326.81
2023-04-03T14:08:43.336Z,103334.00
2023-04-03T14:10:45.871Z,103330.50
2023-04-03T14:12:47.718Z,103334.09
2023-04-03T14:14:49.202Z,103325.25
2023-04-03T14:16:59.788Z,103323.47
2023-04-03T14:19:01.290Z,103336.63
2023-04-03T14:21:02.767Z,103324.13
2023-04-03T14:23:04.224Z,103325.75
2023-04-03T14:25:06.372Z,103331.81
2023-04-03T14:27:22.818Z,103334.19
2023-04-03T14:29:24.689Z,103325.19
2023-04-03T14:31:26.522Z,103329.59
2023-04-03T14:33:30.254Z,103327.88
2023-04-03T14:35:31.835Z,103330.63
2023-04-03T14:37:33.366Z,103321.97
2023-04-03T14:39:34.922Z,103328.28
2023-04-03T14:41:36.489Z,103319.53
2023-04-03T14:43:38.044Z,103321.38
2023-04-03T14:45:40.086Z,103318.75
2023-04-03T14:47:53.554Z,103317.91
2023-04-03T14:49:55.554Z,103311.75
2023-04-03T14:51:59.998Z,103316.09
2023-04-03T14:54:01.864Z,103310.72
2023-04-03T14:56:03.365Z,103305.44
2023-04-03T14:58:05.010Z,103300.97
2023-04-03T15:00:13.253Z,103307.84
2023-04-03T15:02:25.409Z,103309.31
2023-04-03T15:04:27.267Z,103306.44
2023-04-03T15:06:36.805Z,103296.75
2023-04-03T15:08:38.396Z,103303.91
2023-04-03T15:10:40.226Z,103297.81
2023-04-03T15:12:42.950Z,103290.81
2023-04-03T15:14:52.519Z,103299.66
2023-04-03T15:16:54.965Z,103301.53
2023-04-03T15:18:56.492Z,103296.28
2023-04-03T15:20:57.978Z,103287.50
2023-04-03T15:23:02.269Z,103290.94
2023-04-03T15:25:04.072Z,103278.44
2023-04-03T15:27:05.636Z,103288.00
2023-04-03T15:29:07.323Z,103280.84
2023-04-03T15:31:09.136Z,103277.22
2023-04-03T15:33:10.677Z,103287.63
2023-04-03T15:35:12.774Z,103272.53
2023-04-03T15:37:14.243Z,103274.22
2023-04-03T15:39:17.274Z,103275.84
2023-04-03T15:41:18.915Z,103276.63
2023-04-03T15:43:20.770Z,103284.69
2023-04-03T15:45:22.822Z,103271.69
2023-04-03T15:47:26.041Z,103263.03
2023-04-03T15:49:28.026Z,103256.16
2023-04-03T15:51:29.679Z,103259.03
2023-04-03T15:53:31.160Z,103259.16
2023-04-03T15:55:35.622Z,103256.56
2023-04-03T15:59:43.469Z,103250.44
2023-04-03T16:01:45.542Z,103257.44
2023-04-03T16:03:47.970Z,103260.72
2023-04-03T16:05:50.688Z,103259.56
2023-04-03T16:07:52.737Z,103265.38
2023-04-03T16:09:54.321Z,103265.13
2023-04-03T16:11:55.772Z,103268.50
2023-04-03T16:13:57.472Z,103264.22
2023-04-03T16:15:59.045Z,103259.13
2023-04-03T16:18:02.407Z,103257.56
2023-04-03T16:20:06.315Z,103257.69
2023-04-03T16:22:07.881Z,103254.31
2023-04-03T16:24:09.859Z,103248.28
2023-04-03T16:26:11.714Z,103254.44
2023-04-03T16:28:14.908Z,103252.72
2023-04-03T16:30:16.472Z,103251.00
2023-04-03T16:32:18.046Z,103250.25
2023-04-03T16:34:19.595Z,103248.56
2023-04-03T16:36:21.105Z,103250.34
2023-04-03T16:38:25.470Z,103249.38
2023-04-03T16:40:27.134Z,103248.34
2023-04-03T16:42:28.758Z,103241.97
2023-04-03T16:44:30.320Z,103247.09
2023-04-03T16:46:31.900Z,103246.97
2023-04-03T16:48:33.492Z,103248.59
2023-04-03T16:50:35.509Z,103248.38
2023-04-03T16:52:37.343Z,103239.31
2023-04-03T16:54:39.071Z,103246.22
2023-04-03T16:56:41.282Z,103243.38
2023-04-03T16:58:42.825Z,103250.22
2023-04-03T17:00:44.543Z,103245.66
2023-04-03T17:02:46.314Z,103244.56
2023-04-03T17:04:49.087Z,103254.06
2023-04-03T17:06:52.999Z,103253.19
2023-04-03T17:08:54.546Z,103254.06
2023-04-03T17:10:56.321Z,103252.31
2023-04-03T17:12:57.794Z,103253.09
2023-04-03T17:14:59.300Z,103251.31
2023-04-03T17:17:01.131Z,103261.75
2023-04-03T17:19:04.208Z,103257.34
2023-04-03T17:21:06.288Z,103259.91
2023-04-03T17:23:07.819Z,103252.72
2023-04-03T17:25:11.014Z,103255.25
2023-04-03T17:27:12.851Z,103253.25
2023-04-03T17:29:14.651Z,103257.66
2023-04-03T17:31:17.644Z,103256.66
2023-04-03T17:33:19.117Z,103259.97
2023-04-03T17:35:20.859Z,103259.75
2023-04-03T17:37:22.521Z,103255.34
2023-04-03T17:39:24.039Z,103262.22
2023-04-03T17:41:26.250Z,103264.69
2023-04-03T17:43:28.478Z,103275.03
2023-04-03T17:45:29.972Z,103278.47
2023-04-03T17:47:31.500Z,103271.22
2023-04-03T17:49:33.502Z,103263.25
2023-04-03T17:51:35.019Z,103275.47
2023-04-03T17:53:36.863Z,103271.78
2023-04-03T17:55:39.817Z,103275.28
2023-04-03T17:57:41.566Z,103276.84
2023-04-03T17:59:43.026Z,103279.31
2023-04-03T18:01:46.951Z,103280.06
2023-04-03T18:03:49.771Z,103279.13
2023-04-03T18:05:54.284Z,103283.34
2023-04-03T18:07:58.289Z,103283.22
2023-04-03T18:10:00.059Z,103276.84
2023-04-03T18:12:04.600Z,103280.97
2023-04-03T18:14:09.611Z,103283.59
2023-04-03T18:16:12.714Z,103278.16
2023-04-03T18:18:14.809Z,103281.53
2023-04-03T18:20:17.878Z,103280.47
2023-04-03T18:22:22.622Z,103275.09
2023-04-03T18:24:26.145Z,103282.78
2023-04-03T18:26:28.358Z,103282.75
2023-04-03T18:28:32.251Z,103281.75
2023-04-03T18:30:34.821Z,103292.09
2023-04-03T18:32:36.497Z,103288.44
2023-04-03T18:34:38.172Z,103293.44
2023-04-03T18:36:40.788Z,103280.13
2023-04-03T18:38:42.411Z,103294.91
2023-04-03T18:40:44.831Z,103288.69
2023-04-03T18:42:46.384Z,103292.13
2023-04-03T18:44:51.627Z,103296.38
2023-04-03T18:46:54.020Z,103295.34
2023-04-03T18:48:55.945Z,103304.88
2023-04-03T18:50:57.520Z,103299.38
2023-04-03T18:52:59.022Z,103299.31
2023-04-03T18:55:00.791Z,103294.84
2023-04-03T18:57:02.354Z,103292.03
2023-04-03T18:59:04.450Z,103294.47
2023-04-03T19:01:06.676Z,103298.75
2023-04-03T19:03:09.780Z,103298.63
2023-04-03T19:05:14.009Z,103300.16
2023-04-03T19:07:15.507Z,103298.31
2023-04-03T19:09:17.174Z,103296.44
2023-04-03T19:11:18.694Z,103296.19
2023-04-03T19:13:20.341Z,103299.47
2023-04-03T19:15:24.689Z,103301.03
2023-04-03T19:17:28.622Z,103301.78
2023-04-03T19:19:30.197Z,103299.91
2023-04-03T19:21:31.680Z,103301.44
2023-04-03T19:23:33.370Z,103308.28
2023-04-03T19:25:35.238Z,103303.66
2023-04-03T19:27:38.320Z,103306.97
2023-04-03T19:29:39.805Z,103301.50
2023-04-03T19:31:41.439Z,103309.19
2023-04-03T19:33:44.071Z,103309.00
2023-04-03T19:35:45.807Z,103301.88
2023-04-03T19:37:50.770Z,103306.13
2023-04-03T19:39:52.529Z,103296.34
2023-04-03T19:41:54.092Z,103299.75
2023-04-03T19:43:56.777Z,103303.13
2023-04-03T19:45:58.288Z,103300.41
2023-04-03T19:48:01.441Z,103302.16
2023-04-03T19:50:03.711Z,103302.84
2023-04-03T19:52:05.398Z,103299.16
2023-04-03T19:54:06.905Z,103307.88
2023-04-03T19:56:08.379Z,103299.91
2023-04-03T19:58:09.905Z,103305.81
2023-04-03T20:00:13.637Z,103303.09
2023-04-03T20:02:15.349Z,103298.56
2023-04-03T20:04:16.937Z,103306.25
2023-04-03T20:06:18.805Z,103306.06
2023-04-03T20:08:21.116Z,103302.50
2023-04-03T20:10:22.624Z,103312.84
2023-04-03T20:12:24.086Z,103318.72
2023-04-03T20:14:26.112Z,103308.03
2023-04-03T20:16:28.190Z,103311.38
2023-04-03T20:18:30.453Z,103310.38
2023-04-03T20:20:31.997Z,103311.03
2023-04-03T20:22:35.500Z,103311.88
2023-04-03T20:24:37.050Z,103310.81
2023-04-03T20:26:43.662Z,103313.25
2023-04-03T20:28:45.375Z,103309.59
2023-04-03T20:30:50.727Z,103310.44
2023-04-03T20:32:52.205Z,103311.09
2023-04-03T20:35:01.271Z,103318.00
2023-04-03T20:37:06.109Z,103314.28
2023-04-03T20:39:07.687Z,103323.66
2023-04-03T20:41:10.265Z,103315.72
2023-04-03T20:43:12.532Z,103316.59
2023-04-03T20:45:14.232Z,103311.19
2023-04-03T20:47:16.162Z,103304.06
2023-04-03T20:49:18.389Z,103301.34
2023-04-03T20:51:20.973Z,103301.13
2023-04-03T20:53:23.086Z,103301.78
2023-04-03T20:55:24.826Z,103295.44
2023-04-03T20:57:26.544Z,103297.09
2023-04-03T20:59:28.914Z,103300.50
2023-04-03T21:01:32.190Z,103302.88
2023-04-03T21:03:33.719Z,103301.03
2023-04-03T21:05:36.932Z,103305.25
2023-04-03T21:08:16.376Z,103296.34
2023-04-03T21:10:55.278Z,103297.81
2023-04-03T21:13:34.808Z,103301.88
2023-04-03T21:15:49.139Z,103304.28
2023-04-03T21:18:07.655Z,103298.06
2023-04-03T21:20:09.409Z,103301.25
2023-04-03T21:22:10.955Z,103300.34
2023-04-03T21:24:14.004Z,103301.97
2023-04-03T21:26:16.886Z,103308.78
2023-04-03T21:28:19.033Z,103302.53
2023-04-03T21:30:20.763Z,103308.44
2023-04-03T21:32:22.249Z,103306.59
2023-04-03T21:34:33.443Z,103306.53
2023-04-03T21:36:41.670Z,103303.81
2023-04-03T21:38:47.643Z,103307.09
2023-04-03T21:40:50.908Z,103301.75
2023-04-03T21:42:56.019Z,103302.50
2023-04-03T21:44:58.323Z,103292.75
2023-04-03T21:46:59.854Z,103292.69
2023-04-03T21:49:01.414Z,103296.91
2023-04-03T21:51:04.526Z,103295.06
2023-04-03T21:53:06.056Z,103294.03
2023-04-03T21:55:08.631Z,103300.75
2023-04-03T21:57:11.741Z,103300.63
2023-04-03T21:59:13.330Z,103295.28
2023-04-03T22:01:16.320Z,103288.22
2023-04-03T22:03:23.986Z,103290.63
2023-04-03T22:05:26.449Z,103289.59
2023-04-03T22:07:28.069Z,103292.88
2023-04-03T22:09:29.504Z,103300.56
2023-04-03T22:11:31.217Z,103295.22
2023-04-03T22:13:33.567Z,103298.50
2023-04-03T22:15:43.679Z,103302.78
2023-04-03T22:17:45.283Z,103296.59
2023-04-03T22:19:46.998Z,103301.59
2023-04-03T22:21:48.576Z,103295.50
2023-04-03T22:23:50.083Z,103289.41
2023-04-03T22:26:06.266Z,103298.03
2023-04-03T22:28:07.725Z,103294.47
2023-04-03T22:30:09.482Z,103297.84
2023-04-03T22:32:10.953Z,103291.59
2023-04-03T22:34:12.474Z,103288.94
2023-04-03T22:36:14.590Z,103287.22
2023-04-03T22:38:16.807Z,103285.44
2023-04-03T22:40:18.434Z,103286.19
2023-04-03T22:42:19.921Z,103287.81
2023-04-03T22:44:21.656Z,103290.38
2023-04-03T22:46:25.831Z,103289.41
2023-04-03T22:48:27.839Z,103290.94
2023-04-03T22:50:30.172Z,103282.16
2023-04-03T22:52:31.650Z,103289.03
2023-04-03T22:54:33.111Z,103281.88
2023-04-03T22:56:34.573Z,103290.59
2023-04-03T22:58:36.863Z,103285.13
2023-04-03T23:00:38.525Z,103292.94
2023-04-03T23:02:40.180Z,103289.44
2023-04-03T23:04:41.740Z,103290.94
2023-04-03T23:06:43.546Z,103283.88
2023-04-03T23:08:45.015Z,103291.69
2023-04-03T23:10:47.051Z,103287.16
2023-04-03T23:12:48.526Z,103284.47
2023-04-03T23:14:49.994Z,103297.56
2023-04-03T23:16:51.583Z,103291.34
2023-04-03T23:18:53.041Z,103291.19
2023-04-03T23:20:55.135Z,103289.34
2023-04-03T23:22:56.847Z,103296.31
2023-04-03T23:24:58.374Z,103288.44
2023-04-03T23:26:59.872Z,103288.38
2023-04-03T23:29:01.399Z,103291.63
2023-04-03T23:31:06.543Z,103290.59
2023-04-03T23:33:08.075Z,103292.16
2023-04-03T23:35:09.664Z,103289.34
2023-04-03T23:37:14.050Z,103294.53
2023-04-03T23:39:15.540Z,103284.13
2023-04-03T23:41:17.206Z,103286.59
2023-04-03T23:43:18.709Z,103296.09
2023-04-03T23:45:20.185Z,103292.59
2023-04-03T23:47:21.898Z,103291.56